This is the latest recevied weather packets stored in our database for station/object OM8AGG-10. If no packets are shown the sender has not sent any weather packets the latest 10 day(s).
| Time | Temp. | Humidity | Pressure | Rain* | Wind** | Luminosity | Snow |
|---|---|---|---|---|---|---|---|
| 1777869287 | 2.22° C | 100% | 1021.6 hPa | - | - | - | - |
| 1777868387 | 1.11° C | 100% | 1021.5 hPa | - | - | - | - |
| 1777867487 | 0.56° C | 100% | 1021.4 hPa | - | - | - | - |
| 1777866587 | 0.56° C | 100% | 1021.3 hPa | - | - | - | - |
| 1777865687 | 0° C | 100% | 1021.2 hPa | - | - | - | - |
| 1777864787 | 0° C | 100% | 1021.3 hPa | - | - | - | - |
| 1777863887 | 0° C | 100% | 1021.3 hPa | - | - | - | - |
| 1777862987 | 0° C | 100% | 1021.2 hPa | - | - | - | - |
| 1777862087 | 0° C | 99% | 1021.2 hPa | - | - | - | - |
| 1777861187 | 0.56° C | 99% | 1021.2 hPa | - | - | - | - |
| 1777860287 | 0.56° C | 98% | 1021.1 hPa | - | - | - | - |
| 1777859387 | 1.11° C | 98% | 1021.1 hPa | - | - | - | - |
| 1777858487 | 1.67° C | 97% | 1021.1 hPa | - | - | - | - |
| 1777857586 | 1.67° C | 99% | 1021 hPa | - | - | - | - |
| 1777856686 | 1.11° C | 98% | 1021.1 hPa | - | - | - | - |
| 1777855786 | 1.67° C | 97% | 1021.1 hPa | - | - | - | - |
| 1777854886 | 1.67° C | 97% | 1021 hPa | - | - | - | - |
| 1777853986 | 2.22° C | 96% | 1021.1 hPa | - | - | - | - |
| 1777853086 | 2.22° C | 97% | 1021 hPa | - | - | - | - |
| 1777852186 | 2.78° C | 93% | 1021.2 hPa | - | - | - | - |
| 1777851286 | 3.33° C | 90% | 1021.2 hPa | - | - | - | - |
| 1777850386 | 4.44° C | 87% | 1021.2 hPa | - | - | - | - |
| 1777849486 | 3.33° C | 100% | 1021.2 hPa | - | - | - | - |
| 1777847686 | 3.89° C | 90% | 1021.1 hPa | - | - | - | - |
| 1777846785 | 3.33° C | 90% | 1021 hPa | - | - | - | - |
* Rain since midnight (hover to see other rain measurements)
** Current wind speed in m/s (hover to see current wind gust speed)